Time;durP1;ratioP1;P1;durP2;ratioP2;P2;SDS_P1;SDS_P2;PMS_P1;PMS_P2;Temp;Humidity;BMP_temperature;BMP_pressure;BME280_temperature;BME280_humidity;BME280_pressure;Samples;Min_cycle;Max_cycle;Signal;HPM_P1;HPM_P2
2022/10/04 00:03:24;;;;;;;10.20;6.53;;;;;;;12.01;100.00;102306.16;10377804;28;20371;-75
2022/10/04 00:08:25;;;;;;;13.95;5.68;;;;;;;11.97;100.00;102308.38;10377959;28;20485;-74
2022/10/04 00:13:25;;;;;;;14.20;7.57;;;;;;;11.89;100.00;102311.09;10377947;28;20034;-74
2022/10/04 00:18:31;;;;;;;9.02;6.32;;;;;;;11.85;100.00;102305.16;10376552;28;20315;-74
2022/10/04 00:23:34;;;;;;;17.63;7.43;;;;;;;11.89;100.00;102289.38;10377077;28;20041;-74
2022/10/04 00:28:34;;;;;;;14.32;7.57;;;;;;;11.91;100.00;102275.66;10379443;28;20030;-74
2022/10/04 00:33:36;;;;;;;9.60;7.22;;;;;;;11.92;100.00;102288.19;10381174;28;20084;-74
2022/10/04 00:38:36;;;;;;;10.38;7.20;;;;;;;11.90;100.00;102295.66;10377386;28;20034;-74
2022/10/04 00:43:39;;;;;;;8.10;6.38;;;;;;;11.84;100.00;102308.91;10375623;28;20030;-74
2022/10/04 00:48:54;;;;;;;15.55;6.95;;;;;;;11.74;100.00;102301.91;10375562;28;20049;-74
2022/10/04 00:54:12;;;;;;;10.23;7.65;;;;;;;11.65;100.00;102292.94;10375194;28;20065;-74
2022/10/04 00:59:49;;;;;;;15.93;7.22;;;;;;;11.49;100.00;102279.38;10376637;28;20089;-67
2022/10/04 01:05:09;;;;;;;11.85;7.63;;;;;;;11.44;100.00;102279.03;10378591;28;20081;-69
2022/10/04 01:10:35;;;;;;;11.18;8.18;;;;;;;11.32;100.00;102268.50;10376960;28;20510;-68
2022/10/04 01:15:53;;;;;;;14.40;7.35;;;;;;;11.22;100.00;102272.41;10376688;28;20108;-69
2022/10/04 01:21:06;;;;;;;15.43;8.70;;;;;;;11.14;100.00;102274.09;10360590;28;20516;-68
2022/10/04 01:26:25;;;;;;;16.60;9.13;;;;;;;11.09;100.00;102257.47;10378161;28;20089;-68
2022/10/04 01:31:26;;;;;;;18.92;9.98;;;;;;;11.00;100.00;102238.66;10378334;28;20065;-67
2022/10/04 01:36:27;;;;;;;14.48;9.25;;;;;;;10.98;100.00;102225.31;10358564;28;20378;-67
2022/10/04 01:41:55;;;;;;;11.90;8.07;;;;;;;10.98;100.00;102232.59;10375238;28;20034;-68
2022/10/04 01:46:58;;;;;;;15.25;9.93;;;;;;;11.01;100.00;102205.13;10375120;28;20034;-68
2022/10/04 01:52:04;;;;;;;13.95;9.80;;;;;;;11.08;100.00;102204.28;10358044;28;20374;-67
2022/10/04 01:57:24;;;;;;;11.88;8.68;;;;;;;11.11;100.00;102187.69;10372920;28;20132;-68
2022/10/04 02:02:51;;;;;;;11.98;10.63;;;;;;;11.21;100.00;102181.25;10357562;28;20363;-67
2022/10/04 02:07:51;;;;;;;19.55;9.77;;;;;;;11.17;100.00;102161.78;10375266;28;20072;-68
2022/10/04 02:12:53;;;;;;;16.52;11.00;;;;;;;11.11;100.00;102143.47;10373472;28;20068;-67
2022/10/04 02:17:54;;;;;;;14.75;9.60;;;;;;;11.07;100.00;102136.66;10356916;28;20409;-68
2022/10/04 02:22:58;;;;;;;12.75;10.02;;;;;;;10.98;100.00;102137.72;10373193;28;20038;-68
2022/10/04 02:27:58;;;;;;;12.70;9.70;;;;;;;10.88;100.00;102125.19;10388487;28;20417;-68
2022/10/04 02:33:01;;;;;;;15.15;10.32;;;;;;;10.78;100.00;102123.63;10373060;28;20062;-68
2022/10/04 02:38:08;;;;;;;19.42;11.00;;;;;;;10.69;100.00;102117.41;10374374;28;20034;-68
2022/10/04 02:43:12;;;;;;;15.02;12.00;;;;;;;10.70;100.00;102102.81;10374001;28;20045;-69
2022/10/04 02:48:19;;;;;;;12.82;9.98;;;;;;;10.66;100.00;102099.59;10373702;28;20117;-68
2022/10/04 02:53:31;;;;;;;28.30;12.45;;;;;;;10.59;100.00;102095.00;10373000;28;20034;-68
2022/10/04 02:58:31;;;;;;;16.48;10.82;;;;;;;10.47;100.00;102108.06;10389459;28;20149;-68
2022/10/04 03:03:33;;;;;;;16.98;10.75;;;;;;;10.30;100.00;102104.44;10373596;28;20374;-67
2022/10/04 03:08:48;;;;;;;26.58;12.27;;;;;;;10.20;100.00;102090.19;10378926;28;20401;-68
2022/10/04 03:13:51;;;;;;;19.90;10.95;;;;;;;10.20;100.00;102084.78;10379478;28;20034;-68
2022/10/04 03:18:52;;;;;;;13.65;11.93;;;;;;;10.14;100.00;102071.91;10379071;28;20061;-68
2022/10/04 03:23:53;;;;;;;18.67;12.38;;;;;;;10.15;100.00;102060.09;10380253;28;20038;-69
2022/10/04 03:28:53;;;;;;;24.02;14.32;;;;;;;10.21;100.00;102043.16;10378831;28;20037;-68
2022/10/04 03:33:54;;;;;;;33.72;12.65;;;;;;;10.28;100.00;102044.22;10379171;28;20034;-69
2022/10/04 03:38:55;;;;;;;22.90;13.52;;;;;;;10.37;100.00;102042.34;10395362;28;20029;-68
2022/10/04 03:43:55;;;;;;;24.45;12.77;;;;;;;10.37;100.00;102040.53;10396046;28;20037;-69
2022/10/04 03:48:56;;;;;;;21.80;14.45;;;;;;;10.36;100.00;102040.66;10386387;28;20076;-69
2022/10/04 03:53:57;;;;;;;22.65;14.65;;;;;;;10.31;100.00;102053.88;10383324;28;20026;-68
2022/10/04 03:58:57;;;;;;;21.30;15.27;;;;;;;10.25;100.00;102058.06;10378990;28;20096;-68
2022/10/04 04:04:18;;;;;;;24.00;13.90;;;;;;;10.20;100.00;102055.84;10377499;28;20037;-69
2022/10/04 04:09:39;;;;;;;25.33;16.17;;;;;;;10.17;100.00;102047.22;10378423;28;20059;-68
2022/10/04 04:14:39;;;;;;;20.77;13.40;;;;;;;10.16;100.00;102054.50;10378807;28;20029;-67
2022/10/04 04:19:40;;;;;;;20.20;14.32;;;;;;;10.16;100.00;102056.34;10379152;28;20026;-69
2022/10/04 04:24:41;;;;;;;23.85;12.68;;;;;;;10.16;100.00;102051.78;10393166;28;20034;-68
2022/10/04 04:29:48;;;;;;;23.42;13.27;;;;;;;10.23;100.00;102049.25;10393359;28;20026;-68
2022/10/04 04:35:22;;;;;;;17.27;13.50;;;;;;;10.25;100.00;102064.31;10335036;28;20069;-72
2022/10/04 04:40:23;;;;;;;30.05;14.80;;;;;;;10.27;100.00;102049.78;10377198;28;20065;-70
2022/10/04 04:45:25;;;;;;;22.77;14.60;;;;;;;10.24;100.00;102054.53;10359212;28;20041;-71
2022/10/04 04:50:29;;;;;;;19.80;14.25;;;;;;;10.25;100.00;102060.78;10375485;28;20048;-70
2022/10/04 04:55:33;;;;;;;24.90;13.07;;;;;;;10.23;100.00;102062.78;10391679;28;20030;-69
2022/10/04 05:00:37;;;;;;;21.08;14.77;;;;;;;10.17;100.00;102052.63;10374660;28;20148;-68
2022/10/04 05:05:37;;;;;;;25.50;13.27;;;;;;;10.14;100.00;102042.13;10376289;28;20117;-68
2022/10/04 05:10:49;;;;;;;17.25;13.63;;;;;;;10.13;100.00;102046.72;10345792;28;20401;-68
2022/10/04 05:15:51;;;;;;;21.88;15.65;;;;;;;10.17;100.00;102033.69;10376464;28;20060;-67
2022/10/04 05:20:52;;;;;;;27.02;16.00;;;;;;;10.18;100.00;102024.56;10374475;28;20112;-68
2022/10/04 05:25:52;;;;;;;19.25;15.10;;;;;;;10.14;100.00;102031.31;10390042;28;20159;-68
2022/10/04 05:31:06;;;;;;;26.08;14.65;;;;;;;10.09;100.00;102029.13;10374075;28;20057;-69
2022/10/04 05:36:09;;;;;;;29.73;15.77;;;;;;;10.02;100.00;102020.81;10388915;28;20426;-69
2022/10/04 05:41:48;;;;;;;26.83;15.30;;;;;;;9.93;100.00;102021.81;10374650;28;20030;-68
2022/10/04 05:46:49;;;;;;;24.60;15.82;;;;;;;9.95;100.00;102016.22;10366802;28;20068;-68
2022/10/04 05:52:05;;;;;;;22.42;16.92;;;;;;;10.06;100.00;102007.78;10357841;28;20045;-69
2022/10/04 05:57:18;;;;;;;22.80;16.40;;;;;;;10.06;100.00;102006.97;10389647;28;20137;-68
2022/10/04 06:02:53;;;;;;;33.17;16.90;;;;;;;10.05;100.00;101998.00;10392978;28;20041;-69
2022/10/04 06:08:00;;;;;;;29.17;16.85;;;;;;;10.07;100.00;102001.34;10377235;28;20045;-69
2022/10/04 06:13:07;;;;;;;27.80;16.98;;;;;;;10.10;100.00;101989.34;10377486;28;20026;-70
2022/10/04 06:18:13;;;;;;;25.73;17.25;;;;;;;10.17;100.00;101985.78;10378103;28;20034;-70
2022/10/04 06:23:17;;;;;;;19.90;14.93;;;;;;;10.22;100.00;101990.72;10373999;28;20038;-68
2022/10/04 06:28:33;;;;;;;30.52;16.13;;;;;;;10.24;100.00;102004.91;10390515;28;20107;-69
2022/10/04 06:34:06;;;;;;;26.33;17.92;;;;;;;10.29;100.00;101985.50;10388866;28;20120;-69
2022/10/04 06:39:12;;;;;;;24.23;18.17;;;;;;;11.29;100.00;101991.41;10373869;28;20030;-69
2022/10/04 06:44:29;;;;;;;34.38;18.90;;;;;;;12.33;100.00;101982.84;10396235;28;20037;-69
2022/10/04 06:50:04;;;;;;;37.88;17.80;;;;;;;13.07;100.00;101971.22;10381637;28;20091;-67
2022/10/04 06:55:32;;;;;;;31.88;15.25;;;;;;;13.57;100.00;101975.06;10380652;28;20042;-68
2022/10/04 07:00:35;;;;;;;18.58;13.85;;;;;;;13.88;100.00;101973.91;10395727;28;20062;-68
2022/10/04 07:06:03;;;;;;;19.85;11.73;;;;;;;14.44;100.00;101974.03;10380517;28;20353;-69
2022/10/04 07:11:16;;;;;;;15.30;12.43;;;;;;;14.89;100.00;101980.06;10364856;28;20123;-68
2022/10/04 07:16:36;;;;;;;16.13;10.57;;;;;;;15.21;100.00;101973.13;10395639;28;20030;-68
2022/10/04 07:21:41;;;;;;;20.95;12.98;;;;;;;15.26;100.00;101995.19;10379741;28;20036;-67
2022/10/04 07:26:48;;;;;;;10.35;9.20;;;;;;;16.13;100.00;101988.16;10378948;28;20417;-67
2022/10/04 07:32:01;;;;;;;;;;;;;;;15.43;100.00;101982.03;10380580;28;20417;-67
2022/10/04 07:37:12;;;;;;;18.80;10.57;;;;;;;15.55;100.00;101998.69;10396147;28;19913;-68
2022/10/04 07:42:31;;;;;;;11.27;9.57;;;;;;;16.88;100.00;101998.94;10377396;28;20034;-68
2022/10/04 07:47:32;;;;;;;11.80;9.32;;;;;;;15.56;98.46;102022.22;10362596;28;20061;-68
2022/10/04 07:52:44;;;;;;;26.17;10.13;;;;;;;14.88;100.00;102002.94;10362430;28;20087;-67
2022/10/04 07:57:57;;;;;;;13.88;9.25;;;;;;;14.95;100.00;102009.28;10377761;28;20057;-68
2022/10/04 08:03:33;;;;;;;11.38;10.02;;;;;;;15.27;100.00;102004.22;10378291;28;20026;-68
2022/10/04 08:09:01;;;;;;;13.30;10.35;;;;;;;16.81;100.00;101998.94;10377697;28;20046;-67
2022/10/04 08:14:40;;;;;;;;;;;;;;;17.99;97.46;102004.25;10377671;28;20081;-67
2022/10/04 08:20:07;;;;;;;10.45;8.80;;;;;;;18.29;85.81;101993.50;10373102;28;19949;-67
2022/10/04 08:25:17;;;;;;;10.23;8.85;;;;;;;18.57;86.23;101989.50;10370482;28;20041;-68
2022/10/04 08:30:17;;;;;;;9.68;8.50;;;;;;;17.41;89.30;101983.22;10360258;28;20045;-68
2022/10/04 08:35:28;;;;;;;19.77;10.52;;;;;;;16.74;89.07;101990.72;10376926;28;20057;-68
2022/10/04 08:40:43;;;;;;;12.63;9.75;;;;;;;18.13;88.70;101989.41;10392396;28;20445;-67
2022/10/04 08:45:55;;;;;;;18.50;10.32;;;;;;;19.02;89.07;101992.06;10377699;28;20120;-67
2022/10/04 08:51:20;;;;;;;8.65;7.53;;;;;;;19.63;83.62;101979.31;10374609;28;20029;-68
2022/10/04 08:56:42;;;;;;;13.15;9.15;;;;;;;19.84;74.98;101983.47;10375008;28;20036;-68
2022/10/04 09:01:57;;;;;;;11.82;9.38;;;;;;;19.64;75.11;101990.06;10374299;28;20065;-67
2022/10/04 09:07:05;;;;;;;16.65;9.38;;;;;;;19.38;73.33;101980.22;10374865;28;20036;-68
2022/10/04 09:12:32;;;;;;;10.90;8.68;;;;;;;20.20;76.69;101993.53;10374560;28;20033;-67
2022/10/04 09:17:45;;;;;;;12.70;8.82;;;;;;;20.14;70.95;101977.97;10360698;28;20022;-67
2022/10/04 09:23:04;;;;;;;15.63;9.48;;;;;;;20.14;76.63;101962.31;10373865;28;20045;-67
2022/10/04 09:28:39;;;;;;;12.35;10.10;;;;;;;20.69;74.39;101952.94;10375602;28;20501;-67
2022/10/04 09:33:51;;;;;;;19.45;9.27;;;;;;;20.23;68.92;101945.44;10373691;28;20112;-68
2022/10/04 09:39:03;;;;;;;10.35;7.47;;;;;;;19.57;69.99;101939.00;10358098;28;20030;-68
2022/10/04 09:44:44;;;;;;;13.90;7.85;;;;;;;20.03;73.64;101945.75;10375392;28;20461;-68
2022/10/04 09:50:10;;;;;;;7.03;6.20;;;;;;;21.56;72.81;101965.88;10326321;28;20052;-68
2022/10/04 09:55:35;;;;;;;10.15;6.82;;;;;;;21.91;70.85;101962.94;10373063;28;20040;-68
2022/10/04 10:01:02;;;;;;;11.20;7.60;;;;;;;22.29;62.95;101953.16;10372193;28;20100;-68
2022/10/04 10:06:39;;;;;;;9.48;6.93;;;;;;;22.81;67.56;101952.88;10368526;28;20517;-67
2022/10/04 10:17:39;;;;;;;7.28;6.57;;;;;;;21.31;69.48;101955.13;10368733;28;20124;-68
2022/10/04 10:23:10;;;;;;;10.38;6.80;;;;;;;21.88;70.45;101954.34;10382064;28;20090;-68
2022/10/04 10:28:31;;;;;;;17.63;6.93;;;;;;;22.77;57.82;101937.91;10379877;28;20112;-68
2022/10/04 10:33:57;;;;;;;7.15;6.30;;;;;;;21.40;58.54;101939.91;10380927;28;20125;-68
2022/10/04 10:39:18;;;;;;;7.25;6.55;;;;;;;21.42;65.83;101937.75;10380440;28;20046;-68
2022/10/04 10:44:21;;;;;;;7.47;5.10;;;;;;;22.74;64.31;101930.13;10381427;28;20481;-68
2022/10/04 10:49:40;;;;;;;7.93;6.03;;;;;;;23.26;62.89;101942.72;10382376;28;20072;-68
2022/10/04 10:55:09;;;;;;;13.82;6.53;;;;;;;23.20;56.39;101933.56;10364714;28;20072;-68
2022/10/04 11:00:19;;;;;;;15.07;5.65;;;;;;;21.82;59.74;101931.34;10378898;28;20050;-69
2022/10/04 11:05:38;;;;;;;7.57;5.88;;;;;;;20.24;65.17;101939.72;10381561;28;20050;-68
2022/10/04 11:11:00;;;;;;;11.52;6.00;;;;;;;20.12;67.96;101947.09;10380923;28;20105;-68
2022/10/04 11:16:06;;;;;;;9.93;8.13;;;;;;;20.10;66.98;101950.09;10380210;28;20413;-68
2022/10/04 11:21:31;;;;;;;10.48;7.57;;;;;;;19.91;66.99;101946.59;10377907;28;20048;-68
2022/10/04 11:26:56;;;;;;;18.83;8.50;;;;;;;19.36;69.63;101943.91;10380221;28;20021;-69
2022/10/04 11:32:04;;;;;;;16.73;8.98;;;;;;;19.38;69.26;101935.44;10379691;28;20057;-68
2022/10/04 11:37:15;;;;;;;15.77;9.45;;;;;;;19.80;69.59;101933.63;10378580;28;20455;-68
2022/10/04 11:42:24;;;;;;;11.65;8.38;;;;;;;21.04;71.05;101924.53;10379048;28;20034;-68
2022/10/04 11:47:27;;;;;;;18.45;8.32;;;;;;;22.44;60.30;101917.53;10377848;28;20029;-68
2022/10/04 11:52:48;;;;;;;8.57;6.85;;;;;;;22.16;64.67;101914.88;10377666;28;20037;-69
2022/10/04 11:58:01;;;;;;;8.25;6.93;;;;;;;22.40;57.14;101907.25;10377786;28;20065;-68
2022/10/04 12:03:28;;;;;;;10.75;7.35;;;;;;;22.13;64.00;101901.56;10377004;28;20462;-67
2022/10/04 12:08:36;;;;;;;15.48;6.97;;;;;;;22.29;63.52;101892.47;10377482;28;20349;-68
2022/10/04 12:13:46;;;;;;;11.57;8.60;;;;;;;22.34;62.12;101894.47;10360554;28;20034;-68
2022/10/04 12:19:12;;;;;;;8.88;7.97;;;;;;;22.47;58.57;101877.56;10377594;28;20048;-68
2022/10/04 12:25:08;;;;;;;7.63;6.97;;;;;;;21.88;59.06;101890.91;10362631;28;20033;-68
2022/10/04 12:30:25;;;;;;;13.27;6.63;;;;;;;21.83;58.95;101875.13;10332788;28;20061;-68
2022/10/04 12:35:53;;;;;;;9.93;6.93;;;;;;;21.50;58.19;101862.13;10344407;28;20073;-68
2022/10/04 12:41:11;;;;;;;13.75;6.53;;;;;;;21.59;62.79;101853.19;10375329;28;20030;-69
2022/10/04 12:46:20;;;;;;;12.43;6.60;;;;;;;21.45;59.82;101835.31;10377081;28;20123;-69
2022/10/04 12:51:57;;;;;;;13.63;7.07;;;;;;;22.00;64.18;101829.06;10374730;28;20048;-69
2022/10/04 12:57:15;;;;;;;9.00;6.17;;;;;;;22.00;64.64;101836.53;10361674;28;20034;-68
2022/10/04 13:02:41;;;;;;;19.98;6.32;;;;;;;21.52;67.54;101844.25;10374451;28;20762;-69
2022/10/04 13:08:05;;;;;;;6.18;4.82;;;;;;;21.64;70.35;101833.16;10376371;28;20038;-68
2022/10/04 13:13:29;;;;;;;11.05;7.03;;;;;;;21.54;65.69;101813.72;10374880;28;20030;-69
2022/10/04 13:18:38;;;;;;;10.63;6.60;;;;;;;21.75;68.06;101817.63;10375239;28;20026;-68
2022/10/04 13:23:53;;;;;;;9.85;5.78;;;;;;;21.68;66.65;101801.25;10377015;28;20030;-67
2022/10/04 13:29:14;;;;;;;9.90;5.28;;;;;;;21.35;66.79;101774.50;10377099;28;20115;-68
2022/10/04 13:34:19;;;;;;;8.52;5.07;;;;;;;21.11;64.81;101774.59;10346568;28;20041;-69
2022/10/04 13:39:31;;;;;;;13.23;6.07;;;;;;;20.85;68.23;101767.75;10356333;28;20065;-68
2022/10/04 13:44:45;;;;;;;7.68;5.03;;;;;;;20.61;71.43;101753.25;10374584;28;20036;-69
2022/10/04 13:50:13;;;;;;;12.20;5.72;;;;;;;21.16;72.10;101754.56;10357316;28;20065;-68
2022/10/04 14:00:55;;;;;;;6.18;5.57;;;;;;;20.74;75.45;101760.38;10373704;28;20050;-68
2022/10/04 14:06:12;;;;;;;4.88;4.47;;;;;;;20.41;75.46;101759.09;10357962;28;20051;-68
2022/10/04 14:11:41;;;;;;;10.30;5.55;;;;;;;20.26;76.27;101766.19;10356758;28;20030;-68
2022/10/04 14:17:01;;;;;;;7.57;5.22;;;;;;;20.25;77.73;101772.78;10370886;28;20137;-69
2022/10/04 14:22:47;;;;;;;10.57;6.32;;;;;;;19.58;76.28;101757.41;10372806;28;20026;-68
2022/10/04 14:28:13;;;;;;;14.20;5.80;;;;;;;19.19;79.52;101767.97;10353492;28;20128;-69
2022/10/04 14:33:18;;;;;;;13.13;6.17;;;;;;;18.93;79.35;101784.81;10371922;28;20061;-69
2022/10/04 14:38:24;;;;;;;9.75;6.13;;;;;;;18.66;81.50;101785.09;10371871;28;20064;-68
2022/10/04 14:43:59;;;;;;;6.97;5.25;;;;;;;18.49;82.23;101779.41;10373397;28;20088;-68
2022/10/04 14:49:21;;;;;;;13.55;7.40;;;;;;;18.44;82.80;101757.34;10374169;28;20073;-72
2022/10/04 14:54:21;;;;;;;8.90;5.55;;;;;;;18.55;83.15;101762.03;10376600;28;20049;-69
2022/10/04 14:59:41;;;;;;;7.20;6.45;;;;;;;18.56;83.45;101754.63;10374714;28;20064;-68
2022/10/04 15:04:50;;;;;;;7.75;5.70;;;;;;;18.46;83.11;101768.88;10382855;28;20038;-68
2022/10/04 15:09:56;;;;;;;8.00;6.28;;;;;;;18.46;84.36;101757.09;10380860;28;20053;-68
2022/10/04 15:14:57;;;;;;;11.75;7.10;;;;;;;18.45;85.74;101756.25;10378823;28;20030;-69
2022/10/04 15:20:17;;;;;;;8.35;5.82;;;;;;;18.52;84.15;101758.91;10379604;28;20026;-69
2022/10/04 15:25:42;;;;;;;9.88;5.60;;;;;;;18.40;85.01;101764.31;10379233;28;20050;-68
2022/10/04 15:30:56;;;;;;;9.90;6.30;;;;;;;18.41;85.01;101751.44;10379455;28;20081;-68
2022/10/04 15:35:56;;;;;;;8.88;7.65;;;;;;;18.43;85.71;101741.09;10377781;28;20056;-69
2022/10/04 15:41:03;;;;;;;10.77;7.22;;;;;;;18.29;86.14;101741.25;10379444;28;20053;-69
2022/10/04 15:46:25;;;;;;;10.35;6.97;;;;;;;18.24;87.28;101748.47;10378189;28;20069;-68
2022/10/04 15:51:49;;;;;;;8.05;6.88;;;;;;;18.27;87.80;101748.03;10379605;28;20454;-68
2022/10/04 15:56:55;;;;;;;8.38;7.07;;;;;;;18.28;88.03;101755.16;10347429;28;20104;-69
2022/10/04 16:02:24;;;;;;;13.63;7.73;;;;;;;18.20;88.15;101759.06;10377803;28;20406;-68
2022/10/04 16:08:02;;;;;;;6.28;5.63;;;;;;;18.23;88.26;101749.56;10360371;28;20085;-68
2022/10/04 16:13:18;;;;;;;10.38;6.47;;;;;;;18.08;88.45;101747.16;10377479;28;20116;-69
2022/10/04 16:18:43;;;;;;;8.45;6.50;;;;;;;17.96;89.53;101760.78;10361455;28;20033;-68
2022/10/04 16:23:44;;;;;;;10.07;7.15;;;;;;;17.87;89.83;101754.75;10378029;28;20080;-68
2022/10/04 16:29:03;;;;;;;10.77;7.95;;;;;;;17.81;90.14;101755.66;10377932;28;20092;-67
2022/10/04 16:34:40;;;;;;;11.65;8.15;;;;;;;17.87;90.48;101762.16;10377625;28;20053;-68
2022/10/04 16:39:58;;;;;;;7.17;6.27;;;;;;;17.78;90.82;101750.63;10375842;28;20041;-68
2022/10/04 16:45:05;;;;;;;9.45;6.40;;;;;;;17.79;91.13;101776.94;10376229;28;20263;-67
2022/10/04 16:50:09;;;;;;;6.95;6.32;;;;;;;17.67;91.31;101754.06;10376724;28;20041;-67
2022/10/04 16:55:24;;;;;;;7.32;5.70;;;;;;;17.69;91.87;101765.63;10359129;28;20048;-68
2022/10/04 17:00:32;;;;;;;7.68;6.88;;;;;;;17.70;91.94;101763.72;10359280;28;20513;-70
2022/10/04 17:05:48;;;;;;;7.55;6.57;;;;;;;17.62;92.29;101757.47;10375698;28;20038;-68
2022/10/04 17:10:48;;;;;;;12.48;5.53;;;;;;;17.57;92.87;101761.94;10374460;28;20123;-68
2022/10/04 17:16:02;;;;;;;9.87;7.07;;;;;;;17.54;93.01;101765.97;10375219;28;20481;-69
2022/10/04 17:21:12;;;;;;;11.85;5.97;;;;;;;17.54;93.47;101773.34;10360435;28;20280;-68
2022/10/04 17:26:23;;;;;;;7.65;6.82;;;;;;;17.49;93.85;101764.97;10374418;28;20041;-68
2022/10/04 17:31:29;;;;;;;7.22;6.53;;;;;;;17.46;94.02;101751.72;10375426;28;20121;-69
2022/10/04 17:36:42;;;;;;;14.73;7.33;;;;;;;17.42;94.18;101770.47;10374692;28;20121;-68
2022/10/04 17:41:50;;;;;;;8.45;6.30;;;;;;;17.37;94.65;101765.66;10373152;28;20032;-68
2022/10/04 17:46:56;;;;;;;9.70;5.88;;;;;;;17.36;94.77;101757.69;10359126;28;20496;-68
2022/10/04 17:57:29;;;;;;;6.82;6.22;;;;;;;17.33;95.03;101750.75;10359539;28;20026;-68
2022/10/04 18:02:48;;;;;;;6.45;5.85;;;;;;;17.32;95.45;101756.44;10373244;28;20239;-68
2022/10/04 18:07:53;;;;;;;14.35;5.70;;;;;;;17.26;95.44;101763.66;10358033;28;20048;-68
2022/10/04 18:13:02;;;;;;;6.57;5.55;;;;;;;17.28;95.59;101767.00;10374158;28;20045;-68
2022/10/04 18:18:26;;;;;;;13.32;5.72;;;;;;;17.29;95.60;101771.41;10361100;28;20025;-69
2022/10/04 18:23:27;;;;;;;13.20;5.18;;;;;;;17.25;95.74;101761.97;10376577;28;20030;-68
2022/10/04 18:28:28;;;;;;;7.93;4.82;;;;;;;17.17;96.14;101768.56;10373866;28;20096;-68
2022/10/04 18:33:30;;;;;;;4.63;4.22;;;;;;;17.19;95.62;101763.69;10357995;28;20127;-68
2022/10/04 18:38:32;;;;;;;4.28;3.25;;;;;;;17.12;95.80;101748.38;10379729;28;20519;-68
2022/10/04 18:44:04;;;;;;;4.43;3.38;;;;;;;17.11;95.69;101736.59;10364771;28;20129;-68
2022/10/04 18:49:19;;;;;;;2.85;2.33;;;;;;;17.06;96.16;101719.16;10364819;28;20041;-68
2022/10/04 18:54:45;;;;;;;20.85;3.10;;;;;;;17.05;95.94;101728.41;10383197;28;20104;-67
2022/10/04 19:05:50;;;;;;;3.75;3.05;;;;;;;17.04;95.94;101713.03;10368056;28;20434;-68
2022/10/04 19:10:51;;;;;;;3.42;3.10;;;;;;;16.99;96.05;101700.03;10379884;28;20133;-68
2022/10/04 19:16:19;;;;;;;3.28;2.97;;;;;;;16.91;96.39;101689.34;10363755;28;20458;-67
2022/10/04 19:22:00;;;;;;;4.40;3.03;;;;;;;16.91;96.11;101695.69;10380360;28;20029;-67
2022/10/04 19:27:05;;;;;;;2.58;2.42;;;;;;;16.89;95.48;101694.22;10366150;28;20026;-67
2022/10/04 19:32:41;;;;;;;2.92;2.72;;;;;;;16.89;95.18;101692.31;10362822;28;20026;-67
2022/10/04 19:38:28;;;;;;;2.53;2.33;;;;;;;16.87;94.65;101696.31;10379148;28;20065;-67
2022/10/04 19:43:44;;;;;;;7.07;2.78;;;;;;;16.85;94.13;101707.50;10378001;28;20470;-67
2022/10/04 19:48:49;;;;;;;3.50;2.25;;;;;;;16.80;93.53;101688.16;10363305;28;20038;-69
2022/10/04 19:53:50;;;;;;;2.40;2.20;;;;;;;16.80;92.81;101703.72;10378635;28;20458;-68
2022/10/04 19:59:00;;;;;;;1.52;1.42;;;;;;;16.79;93.11;101699.34;10377937;28;20065;-67
2022/10/04 20:09:39;;;;;;;2.88;1.83;;;;;;;16.72;91.72;101708.38;10365781;28;20403;-67
2022/10/04 20:14:40;;;;;;;2.47;2.28;;;;;;;16.72;91.83;101718.47;10381597;28;20030;-68
2022/10/04 20:19:42;;;;;;;2.63;2.43;;;;;;;16.67;91.33;101719.13;10380889;28;20026;-67
2022/10/04 20:24:51;;;;;;;1.85;1.75;;;;;;;16.67;91.00;101721.03;10381344;28;20310;-67
2022/10/04 20:29:51;;;;;;;2.38;2.17;;;;;;;16.63;90.03;101728.00;10380620;28;20073;-67
2022/10/04 20:34:53;;;;;;;2.30;1.60;;;;;;;16.60;90.72;101728.44;10378822;28;20470;-67
2022/10/04 20:39:53;;;;;;;1.45;1.25;;;;;;;16.59;90.74;101734.94;10377973;28;20830;-67
2022/10/04 20:44:55;;;;;;;1.42;1.33;;;;;;;16.55;91.01;101734.53;10378372;28;20124;-69
2022/10/04 20:49:56;;;;;;;5.65;2.03;;;;;;;16.55;91.12;101744.63;10377172;28;20382;-68
2022/10/04 20:54:59;;;;;;;3.25;1.73;;;;;;;16.55;91.24;101739.16;10376273;28;20056;-67
2022/10/04 20:59:59;;;;;;;1.90;1.75;;;;;;;16.49;90.72;101727.19;10376239;28;20056;-66
2022/10/04 21:05:13;;;;;;;4.70;3.28;;;;;;;16.51;88.99;101720.47;10375697;28;20121;-67
2022/10/04 21:10:18;;;;;;;6.38;3.35;;;;;;;16.55;88.11;101715.38;10375259;28;20049;-67
2022/10/04 21:15:20;;;;;;;2.35;2.25;;;;;;;16.57;87.72;101716.03;10374501;28;20077;-67
2022/10/04 21:20:40;;;;;;;2.22;1.60;;;;;;;16.56;87.60;101721.69;10358477;28;20034;-68
2022/10/04 21:25:40;;;;;;;2.05;1.95;;;;;;;16.55;89.04;101712.66;10380301;28;20109;-67
2022/10/04 21:30:41;;;;;;;1.88;1.70;;;;;;;16.56;89.77;101710.75;10376031;28;20036;-67
2022/10/04 21:35:41;;;;;;;2.30;1.83;;;;;;;16.51;89.59;101706.78;10373547;28;20033;-68
2022/10/04 21:40:41;;;;;;;4.32;1.88;;;;;;;16.48;90.33;101707.22;10374674;28;20084;-68
2022/10/04 21:45:42;;;;;;;5.60;2.95;;;;;;;16.47;90.93;101700.09;10375057;28;20038;-67
2022/10/04 21:50:42;;;;;;;5.30;1.85;;;;;;;16.45;91.39;101688.50;10375095;28;20474;-68
2022/10/04 21:55:43;;;;;;;1.90;1.77;;;;;;;16.37;91.86;101693.38;10374658;28;20413;-67
2022/10/04 22:00:43;;;;;;;5.18;2.22;;;;;;;16.38;92.37;101690.44;10374890;28;20045;-67
2022/10/04 22:05:44;;;;;;;2.20;2.00;;;;;;;16.40;92.83;101696.53;10373201;28;20053;-67
2022/10/04 22:10:46;;;;;;;5.95;2.17;;;;;;;16.32;93.36;101679.53;10373361;28;20038;-67
2022/10/04 22:15:46;;;;;;;5.03;2.53;;;;;;;16.33;93.89;101670.28;10373670;28;20034;-66
2022/10/04 22:20:46;;;;;;;2.00;1.88;;;;;;;16.31;94.37;101667.78;10375431;28;20092;-67
2022/10/04 22:25:47;;;;;;;4.78;3.03;;;;;;;16.27;94.83;101669.25;10375678;28;20040;-67
2022/10/04 22:30:54;;;;;;;2.40;2.05;;;;;;;16.18;95.45;101663.19;10368986;28;20030;-67
2022/10/04 22:36:13;;;;;;;1.95;1.85;;;;;;;16.16;95.99;101659.84;10358304;28;20034;-68
2022/10/04 22:41:14;;;;;;;3.83;3.25;;;;;;;16.18;96.01;101656.91;10374932;28;20084;-67
2022/10/04 22:46:17;;;;;;;3.42;2.67;;;;;;;16.18;96.44;101665.94;10378196;28;20145;-67
2022/10/04 22:51:18;;;;;;;2.65;1.52;;;;;;;16.16;96.03;101653.53;10359357;28;20481;-67
2022/10/04 22:56:18;;;;;;;2.90;2.42;;;;;;;16.11;96.53;101661.53;10375002;28;20038;-67
2022/10/04 23:01:19;;;;;;;2.38;1.77;;;;;;;16.11;96.15;101664.25;10375758;28;20053;-67
2022/10/04 23:06:19;;;;;;;1.90;1.75;;;;;;;16.08;96.24;101648.28;10373315;28;20044;-68
2022/10/04 23:11:19;;;;;;;2.95;1.55;;;;;;;16.07;96.36;101657.56;10373450;28;20045;-67
2022/10/04 23:16:21;;;;;;;1.25;0.90;;;;;;;16.09;96.24;101659.03;10372952;28;20058;-67
2022/10/04 23:21:23;;;;;;;1.95;1.58;;;;;;;16.04;95.87;101648.72;10372945;28;20029;-67
2022/10/04 23:26:25;;;;;;;2.13;1.85;;;;;;;16.10;96.27;101643.47;10378813;28;20117;-67
2022/10/04 23:31:26;;;;;;;1.80;1.70;;;;;;;16.03;95.73;101643.50;10380622;28;20034;-67
2022/10/04 23:36:26;;;;;;;8.55;2.55;;;;;;;16.06;95.85;101650.44;10380141;28;20049;-67
2022/10/04 23:41:27;;;;;;;8.18;1.95;;;;;;;16.02;95.12;101644.56;10366628;28;20518;-67
2022/10/04 23:46:27;;;;;;;1.95;1.85;;;;;;;16.00;94.94;101639.28;10380648;28;20044;-67
2022/10/04 23:51:27;;;;;;;6.00;2.65;;;;;;;16.01;94.87;101635.50;10361144;28;20117;-67
2022/10/04 23:56:28;;;;;;;3.13;2.22;;;;;;;16.03;95.09;101655.25;10377996;28;20065;-68
